sensor_id;sensor_type;location;lat;lon;timestamp;pressure;altitude;pressure_sealevel;temperature;humidity
69411;BME280;56604;48.652;9.194;2023-03-14T00:01:46;94748.72;;;8.83;99.42
69411;BME280;56604;48.652;9.194;2023-03-14T00:04:11;94740.34;;;8.81;99.66
69411;BME280;56604;48.652;9.194;2023-03-14T00:06:36;94703.44;;;8.77;100.00
69411;BME280;56604;48.652;9.194;2023-03-14T00:09:02;94690.03;;;8.79;99.21
69411;BME280;56604;48.652;9.194;2023-03-14T00:11:28;94708.91;;;8.81;99.24
69411;BME280;56604;48.652;9.194;2023-03-14T00:13:55;94685.34;;;8.76;99.28
69411;BME280;56604;48.652;9.194;2023-03-14T00:16:22;94677.50;;;8.76;100.00
69411;BME280;56604;48.652;9.194;2023-03-14T00:18:47;94684.81;;;8.79;100.00
69411;BME280;56604;48.652;9.194;2023-03-14T00:21:13;94695.53;;;8.83;98.79
69411;BME280;56604;48.652;9.194;2023-03-14T00:23:39;94680.28;;;8.85;98.60
69411;BME280;56604;48.652;9.194;2023-03-14T00:26:07;94677.38;;;8.91;99.22
69411;BME280;56604;48.652;9.194;2023-03-14T00:28:33;94665.91;;;8.82;99.34
69411;BME280;56604;48.652;9.194;2023-03-14T00:30:58;94668.81;;;8.81;98.91
69411;BME280;56604;48.652;9.194;2023-03-14T00:33:24;94674.31;;;8.79;98.22
69411;BME280;56604;48.652;9.194;2023-03-14T00:35:57;94675.34;;;8.83;99.30
69411;BME280;56604;48.652;9.194;2023-03-14T00:38:23;94680.59;;;8.83;98.63
69411;BME280;56604;48.652;9.194;2023-03-14T00:40:50;94677.03;;;8.98;99.24
69411;BME280;56604;48.652;9.194;2023-03-14T00:43:15;94682.28;;;8.98;98.47
69411;BME280;56604;48.652;9.194;2023-03-14T00:45:40;94669.69;;;9.00;98.53
69411;BME280;56604;48.652;9.194;2023-03-14T00:48:06;94681.38;;;9.08;97.84
69411;BME280;56604;48.652;9.194;2023-03-14T00:50:31;94686.78;;;8.92;98.03
69411;BME280;56604;48.652;9.194;2023-03-14T00:52:56;94686.78;;;8.92;98.51
69411;BME280;56604;48.652;9.194;2023-03-14T00:55:22;94674.25;;;8.89;98.37
69411;BME280;56604;48.652;9.194;2023-03-14T00:57:47;94673.84;;;9.01;98.47
69411;BME280;56604;48.652;9.194;2023-03-14T01:00:13;94682.25;;;9.03;96.99
69411;BME280;56604;48.652;9.194;2023-03-14T01:02:38;94690.88;;;9.04;97.27
69411;BME280;56604;48.652;9.194;2023-03-14T01:05:04;94694.22;;;9.09;97.25
69411;BME280;56604;48.652;9.194;2023-03-14T01:07:29;94694.44;;;9.13;96.54
69411;BME280;56604;48.652;9.194;2023-03-14T01:09:54;94684.31;;;9.06;96.22
69411;BME280;56604;48.652;9.194;2023-03-14T01:12:20;94686.09;;;9.11;96.14
69411;BME280;56604;48.652;9.194;2023-03-14T01:14:45;94679.41;;;8.99;96.07
69411;BME280;56604;48.652;9.194;2023-03-14T01:17:10;94672.00;;;9.01;95.96
69411;BME280;56604;48.652;9.194;2023-03-14T01:19:36;94673.59;;;9.03;96.06
69411;BME280;56604;48.652;9.194;2023-03-14T01:22:01;94668.34;;;9.03;95.75
69411;BME280;56604;48.652;9.194;2023-03-14T01:24:27;94655.69;;;9.10;96.15
69411;BME280;56604;48.652;9.194;2023-03-14T01:26:52;94651.00;;;9.07;95.17
69411;BME280;56604;48.652;9.194;2023-03-14T01:29:17;94644.97;;;9.06;95.57
69411;BME280;56604;48.652;9.194;2023-03-14T01:31:42;94646.16;;;8.95;95.68
69411;BME280;56604;48.652;9.194;2023-03-14T01:34:08;94640.69;;;8.91;95.76
69411;BME280;56604;48.652;9.194;2023-03-14T01:36:33;94636.22;;;8.92;95.12
69411;BME280;56604;48.652;9.194;2023-03-14T01:38:58;94631.72;;;8.97;95.15
69411;BME280;56604;48.652;9.194;2023-03-14T01:41:25;94621.72;;;8.99;94.56
69411;BME280;56604;48.652;9.194;2023-03-14T01:43:51;94630.63;;;8.98;94.62
69411;BME280;56604;48.652;9.194;2023-03-14T01:46:20;94616.06;;;8.87;95.05
69411;BME280;56604;48.652;9.194;2023-03-14T01:49:16;94614.47;;;8.91;94.12
69411;BME280;56604;48.652;9.194;2023-03-14T01:54:26;94615.75;;;8.94;93.56
69411;BME280;56604;48.652;9.194;2023-03-14T01:59:48;94609.34;;;8.81;94.49
69411;BME280;56604;48.652;9.194;2023-03-14T02:02:15;94614.56;;;8.81;94.90
69411;BME280;56604;48.652;9.194;2023-03-14T02:04:41;94612.41;;;8.88;94.50
69411;BME280;56604;48.652;9.194;2023-03-14T02:07:17;94616.63;;;8.84;94.56
69411;BME280;56604;48.652;9.194;2023-03-14T02:09:44;94611.91;;;8.86;95.34
69411;BME280;56604;48.652;9.194;2023-03-14T02:12:11;94615.31;;;8.87;95.13
69411;BME280;56604;48.652;9.194;2023-03-14T02:14:38;94610.88;;;8.82;94.88
69411;BME280;56604;48.652;9.194;2023-03-14T02:17:06;94603.09;;;8.77;95.11
69411;BME280;56604;48.652;9.194;2023-03-14T02:19:56;94604.72;;;8.68;94.70
69411;BME280;56604;48.652;9.194;2023-03-14T02:22:22;94592.75;;;8.62;94.83
69411;BME280;56604;48.652;9.194;2023-03-14T02:27:47;94585.44;;;8.59;96.00
69411;BME280;56604;48.652;9.194;2023-03-14T02:30:24;94574.38;;;8.67;95.62
69411;BME280;56604;48.652;9.194;2023-03-14T02:33:10;94564.97;;;8.66;95.82
69411;BME280;56604;48.652;9.194;2023-03-14T02:38:31;94567.84;;;8.64;94.27
69411;BME280;56604;48.652;9.194;2023-03-14T02:40:58;94569.72;;;8.59;95.43
69411;BME280;56604;48.652;9.194;2023-03-14T02:43:23;94568.41;;;8.61;94.95
69411;BME280;56604;48.652;9.194;2023-03-14T02:45:50;94559.47;;;8.62;94.99
69411;BME280;56604;48.652;9.194;2023-03-14T02:48:26;94563.38;;;8.65;95.54
69411;BME280;56604;48.652;9.194;2023-03-14T02:50:56;94557.31;;;8.69;94.19
69411;BME280;56604;48.652;9.194;2023-03-14T02:53:25;94547.06;;;8.73;94.27
69411;BME280;56604;48.652;9.194;2023-03-14T02:55:51;94556.81;;;8.67;93.81
69411;BME280;56604;48.652;9.194;2023-03-14T02:58:17;94543.50;;;8.64;93.77
69411;BME280;56604;48.652;9.194;2023-03-14T03:00:43;94548.78;;;8.59;93.98
69411;BME280;56604;48.652;9.194;2023-03-14T03:03:08;94545.13;;;8.60;93.70
69411;BME280;56604;48.652;9.194;2023-03-14T03:05:34;94542.00;;;8.58;93.85
69411;BME280;56604;48.652;9.194;2023-03-14T03:07:59;94533.63;;;8.55;93.90
69411;BME280;56604;48.652;9.194;2023-03-14T03:10:25;94529.94;;;8.56;93.02
69411;BME280;56604;48.652;9.194;2023-03-14T03:12:50;94526.06;;;8.54;93.82
69411;BME280;56604;48.652;9.194;2023-03-14T03:15:16;94511.69;;;8.51;92.68
69411;BME280;56604;48.652;9.194;2023-03-14T03:17:42;94504.31;;;8.53;92.91
69411;BME280;56604;48.652;9.194;2023-03-14T03:20:08;94504.38;;;8.48;93.10
69411;BME280;56604;48.652;9.194;2023-03-14T03:22:35;94513.88;;;8.39;93.45
69411;BME280;56604;48.652;9.194;2023-03-14T03:25:01;94513.88;;;8.39;92.32
69411;BME280;56604;48.652;9.194;2023-03-14T03:27:26;94515.47;;;8.40;92.68
69411;BME280;56604;48.652;9.194;2023-03-14T03:29:51;94505.25;;;8.33;92.22
69411;BME280;56604;48.652;9.194;2023-03-14T03:32:17;94500.28;;;8.37;92.40
69411;BME280;56604;48.652;9.194;2023-03-14T03:34:42;94485.13;;;8.34;92.14
69411;BME280;56604;48.652;9.194;2023-03-14T03:37:07;94487.22;;;8.32;91.79
69411;BME280;56604;48.652;9.194;2023-03-14T03:39:33;94479.44;;;8.27;92.16
69411;BME280;56604;48.652;9.194;2023-03-14T03:41:58;94478.09;;;8.29;92.56
69411;BME280;56604;48.652;9.194;2023-03-14T03:44:23;94472.63;;;8.26;91.29
69411;BME280;56604;48.652;9.194;2023-03-14T03:46:49;94479.44;;;8.27;91.98
69411;BME280;56604;48.652;9.194;2023-03-14T03:49:14;94473.75;;;8.20;91.75
69411;BME280;56604;48.652;9.194;2023-03-14T03:51:40;94472.19;;;8.19;91.80
69411;BME280;56604;48.652;9.194;2023-03-14T03:54:05;94470.13;;;8.16;91.54
69411;BME280;56604;48.652;9.194;2023-03-14T03:56:30;94470.94;;;8.11;91.24
69411;BME280;56604;48.652;9.194;2023-03-14T03:58:56;94460.16;;;8.18;91.82
69411;BME280;56604;48.652;9.194;2023-03-14T04:01:21;94459.59;;;8.21;91.04
69411;BME280;56604;48.652;9.194;2023-03-14T04:03:47;94462.25;;;8.16;90.85
69411;BME280;56604;48.652;9.194;2023-03-14T04:06:13;94467.06;;;8.08;90.46
69411;BME280;56604;48.652;9.194;2023-03-14T04:08:39;94450.84;;;8.06;90.66
69411;BME280;56604;48.652;9.194;2023-03-14T04:11:06;94447.16;;;8.07;90.36
69411;BME280;56604;48.652;9.194;2023-03-14T04:13:31;94460.75;;;8.09;89.11
69411;BME280;56604;48.652;9.194;2023-03-14T04:15:57;94453.69;;;8.10;88.50
69411;BME280;56604;48.652;9.194;2023-03-14T04:18:23;94446.91;;;8.09;89.05
69411;BME280;56604;48.652;9.194;2023-03-14T04:20:52;94448.22;;;8.06;88.52
69411;BME280;56604;48.652;9.194;2023-03-14T04:23:18;94444.31;;;8.04;88.38
69411;BME280;56604;48.652;9.194;2023-03-14T04:25:43;94450.66;;;7.98;89.05
69411;BME280;56604;48.652;9.194;2023-03-14T04:28:08;94449.88;;;7.97;89.50
69411;BME280;56604;48.652;9.194;2023-03-14T04:30:34;94438.88;;;8.00;89.53
69411;BME280;56604;48.652;9.194;2023-03-14T04:32:59;94439.44;;;7.97;88.43
69411;BME280;56604;48.652;9.194;2023-03-14T04:35:24;94431.56;;;7.97;88.97
69411;BME280;56604;48.652;9.194;2023-03-14T04:37:50;94427.72;;;7.89;88.14
69411;BME280;56604;48.652;9.194;2023-03-14T04:40:17;94429.56;;;7.89;88.02
69411;BME280;56604;48.652;9.194;2023-03-14T04:42:42;94419.09;;;7.89;88.14
69411;BME280;56604;48.652;9.194;2023-03-14T04:45:08;94418.59;;;7.87;88.48
69411;BME280;56604;48.652;9.194;2023-03-14T04:47:33;94419.13;;;7.84;87.49
69411;BME280;56604;48.652;9.194;2023-03-14T04:49:59;94409.22;;;7.81;88.30
69411;BME280;56604;48.652;9.194;2023-03-14T04:52:25;94403.22;;;7.80;86.97
69411;BME280;56604;48.652;9.194;2023-03-14T04:54:50;94412.91;;;7.80;87.38
69411;BME280;56604;48.652;9.194;2023-03-14T04:57:16;94417.34;;;7.79;88.01
69411;BME280;56604;48.652;9.194;2023-03-14T04:59:41;94408.44;;;7.80;87.30
69411;BME280;56604;48.652;9.194;2023-03-14T05:02:07;94400.31;;;7.82;87.25
69411;BME280;56604;48.652;9.194;2023-03-14T05:04:32;94400.66;;;7.75;87.57
69411;BME280;56604;48.652;9.194;2023-03-14T05:06:59;94396.72;;;7.78;87.01
69411;BME280;56604;48.652;9.194;2023-03-14T05:09:24;94392.03;;;7.75;85.76
69411;BME280;56604;48.652;9.194;2023-03-14T05:11:49;94390.19;;;7.75;85.88
69411;BME280;56604;48.652;9.194;2023-03-14T05:14:14;94375.28;;;7.76;85.47
69411;BME280;56604;48.652;9.194;2023-03-14T05:16:40;94377.84;;;7.81;86.31
69411;BME280;56604;48.652;9.194;2023-03-14T05:19:05;94366.91;;;7.74;86.02
69411;BME280;56604;48.652;9.194;2023-03-14T05:21:30;94369.81;;;7.72;86.04
69411;BME280;56604;48.652;9.194;2023-03-14T05:23:56;94371.38;;;7.73;85.65
69411;BME280;56604;48.652;9.194;2023-03-14T05:26:21;94368.50;;;7.75;85.37
69411;BME280;56604;48.652;9.194;2023-03-14T05:28:46;94363.34;;;7.64;86.15
69411;BME280;56604;48.652;9.194;2023-03-14T05:31:11;94368.88;;;7.63;85.82
69411;BME280;56604;48.652;9.194;2023-03-14T05:33:37;94364.38;;;7.69;85.36
69411;BME280;56604;48.652;9.194;2023-03-14T05:36:02;94358.81;;;7.75;84.11
69411;BME280;56604;48.652;9.194;2023-03-14T05:38:28;94360.03;;;7.83;85.02
69411;BME280;56604;48.652;9.194;2023-03-14T05:40:53;94358.72;;;7.85;84.06
69411;BME280;56604;48.652;9.194;2023-03-14T05:43:18;94355.84;;;7.82;83.97
69411;BME280;56604;48.652;9.194;2023-03-14T05:45:44;94350.13;;;7.80;83.47
69411;BME280;56604;48.652;9.194;2023-03-14T05:48:10;94356.88;;;7.86;84.00
69411;BME280;56604;48.652;9.194;2023-03-14T05:50:35;94355.19;;;7.95;83.64
69411;BME280;56604;48.652;9.194;2023-03-14T05:53:01;94358.38;;;7.92;83.29
69411;BME280;56604;48.652;9.194;2023-03-14T05:55:26;94348.47;;;7.89;83.25
69411;BME280;56604;48.652;9.194;2023-03-14T05:57:53;94342.72;;;7.87;82.73
69411;BME280;56604;48.652;9.194;2023-03-14T06:00:18;94357.84;;;7.90;83.22
69411;BME280;56604;48.652;9.194;2023-03-14T06:02:44;94349.44;;;7.93;83.24
69411;BME280;56604;48.652;9.194;2023-03-14T06:05:09;94359.47;;;8.10;83.23
69411;BME280;56604;48.652;9.194;2023-03-14T06:07:35;94356.44;;;8.22;82.21
69411;BME280;56604;48.652;9.194;2023-03-14T06:10:00;94366.25;;;8.11;82.45
69411;BME280;56604;48.652;9.194;2023-03-14T06:12:25;94357.69;;;8.29;81.31
69411;BME280;56604;48.652;9.194;2023-03-14T06:14:50;94352.84;;;8.37;80.67
69411;BME280;56604;48.652;9.194;2023-03-14T06:17:16;94350.88;;;8.52;81.28
69411;BME280;56604;48.652;9.194;2023-03-14T06:19:41;94354.75;;;8.55;80.82
69411;BME280;56604;48.652;9.194;2023-03-14T06:22:06;94352.41;;;8.53;79.61
69411;BME280;56604;48.652;9.194;2023-03-14T06:24:32;94346.19;;;8.49;80.00
69411;BME280;56604;48.652;9.194;2023-03-14T06:26:57;94342.66;;;8.40;79.99
69411;BME280;56604;48.652;9.194;2023-03-14T06:29:22;94342.94;;;8.33;80.32
69411;BME280;56604;48.652;9.194;2023-03-14T06:31:48;94355.22;;;8.38;80.11
69411;BME280;56604;48.652;9.194;2023-03-14T06:34:13;94340.50;;;8.42;80.44
69411;BME280;56604;48.652;9.194;2023-03-14T06:36:38;94340.91;;;8.54;79.90
69411;BME280;56604;48.652;9.194;2023-03-14T06:39:04;94334.88;;;8.73;78.57
69411;BME280;56604;48.652;9.194;2023-03-14T06:41:29;94335.28;;;8.80;78.40
69411;BME280;56604;48.652;9.194;2023-03-14T06:43:54;94343.44;;;8.78;78.89
69411;BME280;56604;48.652;9.194;2023-03-14T06:46:20;94350.75;;;8.63;78.84
69411;BME280;56604;48.652;9.194;2023-03-14T06:48:45;94344.00;;;8.56;79.20
69411;BME280;56604;48.652;9.194;2023-03-14T06:51:10;94351.94;;;8.51;79.90
69411;BME280;56604;48.652;9.194;2023-03-14T06:53:36;94356.38;;;8.70;78.39
69411;BME280;56604;48.652;9.194;2023-03-14T06:56:01;94353.56;;;8.85;78.64
69411;BME280;56604;48.652;9.194;2023-03-14T06:58:26;94359.72;;;8.94;78.59
69411;BME280;56604;48.652;9.194;2023-03-14T07:00:53;94352.50;;;9.05;76.72
69411;BME280;56604;48.652;9.194;2023-03-14T07:03:19;94354.34;;;9.37;76.90
69411;BME280;56604;48.652;9.194;2023-03-14T07:05:44;94363.50;;;9.54;76.56
69411;BME280;56604;48.652;9.194;2023-03-14T07:08:10;94360.31;;;9.57;76.24
69411;BME280;56604;48.652;9.194;2023-03-14T07:10:35;94354.41;;;9.65;75.46
69411;BME280;56604;48.652;9.194;2023-03-14T07:13:01;94363.69;;;10.31;75.66
69411;BME280;56604;48.652;9.194;2023-03-14T07:15:26;94360.91;;;10.64;73.06
69411;BME280;56604;48.652;9.194;2023-03-14T07:17:51;94351.41;;;10.91;71.43
69411;BME280;56604;48.652;9.194;2023-03-14T07:20:17;94357.16;;;10.43;72.41
69411;BME280;56604;48.652;9.194;2023-03-14T07:22:42;94357.91;;;10.57;72.18
69411;BME280;56604;48.652;9.194;2023-03-14T07:25:08;94366.69;;;10.39;72.48
69411;BME280;56604;48.652;9.194;2023-03-14T07:27:36;94363.28;;;10.38;72.90
69411;BME280;56604;48.652;9.194;2023-03-14T07:30:02;94355.31;;;10.79;72.36
69411;BME280;56604;48.652;9.194;2023-03-14T07:32:27;94350.56;;;11.49;69.36
69411;BME280;56604;48.652;9.194;2023-03-14T07:34:52;94352.50;;;12.46;65.87
69411;BME280;56604;48.652;9.194;2023-03-14T07:37:20;94359.06;;;12.83;64.31
69411;BME280;56604;48.652;9.194;2023-03-14T07:39:45;94363.59;;;13.35;63.07
69411;BME280;56604;48.652;9.194;2023-03-14T07:42:11;94357.00;;;14.14;60.43
69411;BME280;56604;48.652;9.194;2023-03-14T07:44:36;94356.50;;;14.59;58.74
69411;BME280;56604;48.652;9.194;2023-03-14T07:47:01;94359.94;;;15.22;57.82
69411;BME280;56604;48.652;9.194;2023-03-14T07:49:28;94369.25;;;15.62;55.94
69411;BME280;56604;48.652;9.194;2023-03-14T07:51:53;94368.09;;;15.71;54.51
69411;BME280;56604;48.652;9.194;2023-03-14T07:54:19;94375.25;;;15.17;55.46
69411;BME280;56604;48.652;9.194;2023-03-14T07:56:44;94379.31;;;14.72;55.73
69411;BME280;56604;48.652;9.194;2023-03-14T07:59:10;94376.09;;;13.81;58.64
69411;BME280;56604;48.652;9.194;2023-03-14T08:01:36;94378.59;;;14.25;57.92
69411;BME280;56604;48.652;9.194;2023-03-14T08:04:01;94379.34;;;14.25;58.19
69411;BME280;56604;48.652;9.194;2023-03-14T08:06:26;94382.91;;;14.68;57.62
69411;BME280;56604;48.652;9.194;2023-03-14T08:08:51;94382.94;;;14.29;58.97
69411;BME280;56604;48.652;9.194;2023-03-14T08:11:17;94385.25;;;15.32;55.72
69411;BME280;56604;48.652;9.194;2023-03-14T08:13:42;94395.31;;;13.99;57.02
69411;BME280;56604;48.652;9.194;2023-03-14T08:16:15;94377.72;;;14.42;57.14
69411;BME280;56604;48.652;9.194;2023-03-14T08:18:40;94390.13;;;13.03;60.43
69411;BME280;56604;48.652;9.194;2023-03-14T08:21:05;94391.81;;;13.60;59.64
69411;BME280;56604;48.652;9.194;2023-03-14T08:23:31;94391.34;;;12.80;61.31
69411;BME280;56604;48.652;9.194;2023-03-14T08:25:56;94383.44;;;12.89;61.33
69411;BME280;56604;48.652;9.194;2023-03-14T08:28:21;94378.41;;;13.83;59.41
69411;BME280;56604;48.652;9.194;2023-03-14T08:30:47;94377.88;;;14.07;57.30
69411;BME280;56604;48.652;9.194;2023-03-14T08:33:12;94385.44;;;14.17;57.89
69411;BME280;56604;48.652;9.194;2023-03-14T08:35:38;94375.84;;;14.42;57.11
69411;BME280;56604;48.652;9.194;2023-03-14T08:38:04;94381.97;;;14.93;55.16
69411;BME280;56604;48.652;9.194;2023-03-14T08:40:29;94382.69;;;15.78;54.25
69411;BME280;56604;48.652;9.194;2023-03-14T08:42:54;94376.19;;;15.33;53.14
69411;BME280;56604;48.652;9.194;2023-03-14T08:45:19;94387.25;;;14.72;55.06
69411;BME280;56604;48.652;9.194;2023-03-14T08:47:45;94385.59;;;13.73;55.55
69411;BME280;56604;48.652;9.194;2023-03-14T08:50:12;94384.34;;;13.71;55.14
69411;BME280;56604;48.652;9.194;2023-03-14T08:52:38;94379.38;;;13.78;55.63
69411;BME280;56604;48.652;9.194;2023-03-14T08:55:06;94395.63;;;13.98;56.17
69411;BME280;56604;48.652;9.194;2023-03-14T08:57:31;94392.41;;;13.92;55.95
69411;BME280;56604;48.652;9.194;2023-03-14T08:59:57;94396.41;;;13.98;56.92
69411;BME280;56604;48.652;9.194;2023-03-14T09:02:23;94368.53;;;14.48;56.17
69411;BME280;56604;48.652;9.194;2023-03-14T09:04:53;94392.09;;;13.85;58.15
69411;BME280;56604;48.652;9.194;2023-03-14T09:07:18;94401.97;;;13.32;59.79
69411;BME280;56604;48.652;9.194;2023-03-14T09:09:44;94410.00;;;13.01;60.04
69411;BME280;56604;48.652;9.194;2023-03-14T09:12:10;94403.44;;;12.64;63.33
69411;BME280;56604;48.652;9.194;2023-03-14T09:14:35;94400.63;;;12.69;64.11
69411;BME280;56604;48.652;9.194;2023-03-14T09:17:00;94407.19;;;12.97;64.33
69411;BME280;56604;48.652;9.194;2023-03-14T09:19:26;94413.50;;;12.62;63.66
69411;BME280;56604;48.652;9.194;2023-03-14T09:21:51;94409.63;;;12.68;64.13
69411;BME280;56604;48.652;9.194;2023-03-14T09:24:17;94405.34;;;13.24;61.36
69411;BME280;56604;48.652;9.194;2023-03-14T09:26:42;94415.94;;;13.41;60.50
69411;BME280;56604;48.652;9.194;2023-03-14T09:29:08;94422.75;;;13.42;60.89
69411;BME280;56604;48.652;9.194;2023-03-14T09:31:33;94421.81;;;12.55;63.05
69411;BME280;56604;48.652;9.194;2023-03-14T09:33:59;94426.09;;;12.82;63.48
69411;BME280;56604;48.652;9.194;2023-03-14T09:36:24;94409.91;;;12.57;63.05
69411;BME280;56604;48.652;9.194;2023-03-14T09:38:49;94436.56;;;12.47;61.87
69411;BME280;56604;48.652;9.194;2023-03-14T09:41:25;94445.63;;;12.72;61.13
69411;BME280;56604;48.652;9.194;2023-03-14T09:44:00;94438.22;;;12.03;60.97
69411;BME280;56604;48.652;9.194;2023-03-14T09:46:27;94463.44;;;11.96;62.41
69411;BME280;56604;48.652;9.194;2023-03-14T09:48:53;94454.38;;;12.10;62.03
69411;BME280;56604;48.652;9.194;2023-03-14T09:51:20;94450.06;;;11.92;62.70
69411;BME280;56604;48.652;9.194;2023-03-14T09:53:48;94466.56;;;11.84;62.48
69411;BME280;56604;48.652;9.194;2023-03-14T09:56:19;94463.59;;;11.99;62.07
69411;BME280;56604;48.652;9.194;2023-03-14T09:58:54;94469.41;;;11.65;63.07
69411;BME280;56604;48.652;9.194;2023-03-14T10:01:26;94469.88;;;11.89;62.86
69411;BME280;56604;48.652;9.194;2023-03-14T10:03:55;94465.34;;;11.59;63.46
69411;BME280;56604;48.652;9.194;2023-03-14T10:06:22;94465.63;;;11.57;63.81
69411;BME280;56604;48.652;9.194;2023-03-14T10:08:48;94455.16;;;11.66;63.05
69411;BME280;56604;48.652;9.194;2023-03-14T10:11:18;94456.91;;;11.70;63.94
69411;BME280;56604;48.652;9.194;2023-03-14T10:13:49;94446.72;;;11.78;63.55
69411;BME280;56604;48.652;9.194;2023-03-14T10:16:14;94450.78;;;11.84;63.83
69411;BME280;56604;48.652;9.194;2023-03-14T10:18:44;94425.66;;;12.00;62.60
69411;BME280;56604;48.652;9.194;2023-03-14T10:21:29;94429.91;;;12.10;63.45
69411;BME280;56604;48.652;9.194;2023-03-14T10:24:16;94410.50;;;12.54;62.21
69411;BME280;56604;48.652;9.194;2023-03-14T10:26:43;94414.75;;;12.73;60.15
69411;BME280;56604;48.652;9.194;2023-03-14T10:29:11;94415.56;;;12.99;59.43
69411;BME280;56604;48.652;9.194;2023-03-14T10:31:55;94432.06;;;13.31;58.31
69411;BME280;56604;48.652;9.194;2023-03-14T10:34:28;94432.69;;;13.28;58.35
69411;BME280;56604;48.652;9.194;2023-03-14T10:36:57;94433.31;;;13.42;58.70
69411;BME280;56604;48.652;9.194;2023-03-14T10:39:30;94424.72;;;13.89;57.43
69411;BME280;56604;48.652;9.194;2023-03-14T10:42:27;94429.41;;;13.48;59.12
69411;BME280;56604;48.652;9.194;2023-03-14T10:45:39;94426.94;;;13.52;58.19
69411;BME280;56604;48.652;9.194;2023-03-14T10:50:48;94427.06;;;13.03;59.45
69411;BME280;56604;48.652;9.194;2023-03-14T10:53:17;94433.09;;;12.87;58.99
69411;BME280;56604;48.652;9.194;2023-03-14T10:55:43;94436.91;;;12.72;59.94
69411;BME280;56604;48.652;9.194;2023-03-14T10:58:27;94441.56;;;12.66;60.60
69411;BME280;56604;48.652;9.194;2023-03-14T11:01:01;94442.16;;;12.54;60.73
69411;BME280;56604;48.652;9.194;2023-03-14T11:03:31;94440.28;;;12.15;61.59
69411;BME280;56604;48.652;9.194;2023-03-14T11:06:29;94441.25;;;12.19;63.09
69411;BME280;56604;48.652;9.194;2023-03-14T11:09:25;94448.56;;;12.31;62.72
69411;BME280;56604;48.652;9.194;2023-03-14T11:11:58;94453.84;;;12.31;63.90
69411;BME280;56604;48.652;9.194;2023-03-14T11:14:33;94459.16;;;12.40;63.86
69411;BME280;56604;48.652;9.194;2023-03-14T11:20:01;94446.72;;;11.78;64.98
69411;BME280;56604;48.652;9.194;2023-03-14T11:22:45;94460.84;;;11.59;65.66
69411;BME280;56604;48.652;9.194;2023-03-14T11:25:51;94470.03;;;11.48;66.78
69411;BME280;56604;48.652;9.194;2023-03-14T11:28:34;94482.38;;;11.39;66.79
69411;BME280;56604;48.652;9.194;2023-03-14T11:31:27;94475.81;;;11.50;67.57
69411;BME280;56604;48.652;9.194;2023-03-14T11:36:24;94470.78;;;11.62;66.75
69411;BME280;56604;48.652;9.194;2023-03-14T11:38:55;94484.63;;;11.54;68.45
69411;BME280;56604;48.652;9.194;2023-03-14T11:41:39;94480.56;;;11.48;70.21
69411;BME280;56604;48.652;9.194;2023-03-14T11:44:30;94492.94;;;11.11;70.62
69411;BME280;56604;48.652;9.194;2023-03-14T11:47:24;94493.53;;;11.08;71.29
69411;BME280;56604;48.652;9.194;2023-03-14T11:50:08;94485.16;;;11.06;71.88
69411;BME280;56604;48.652;9.194;2023-03-14T11:52:46;94487.94;;;11.23;71.09
69411;BME280;56604;48.652;9.194;2023-03-14T11:55:32;94489.63;;;11.19;70.13
69411;BME280;56604;48.652;9.194;2023-03-14T11:58:02;94499.53;;;11.36;70.86
69411;BME280;56604;48.652;9.194;2023-03-14T12:00:29;94497.75;;;11.32;70.17
69411;BME280;56604;48.652;9.194;2023-03-14T12:13:47;94527.63;;;11.13;72.53
69411;BME280;56604;48.652;9.194;2023-03-14T12:16:31;94524.91;;;10.77;74.39
69411;BME280;56604;48.652;9.194;2023-03-14T12:19:13;94543.41;;;10.72;75.70
69411;BME280;56604;48.652;9.194;2023-03-14T12:21:47;94532.84;;;10.30;76.93
69411;BME280;56604;48.652;9.194;2023-03-14T12:24:20;94563.97;;;10.37;78.68
69411;BME280;56604;48.652;9.194;2023-03-14T12:26:56;94565.59;;;10.66;79.00
69411;BME280;56604;48.652;9.194;2023-03-14T12:29:22;94570.66;;;10.90;76.67
69411;BME280;56604;48.652;9.194;2023-03-14T12:31:49;94570.47;;;11.00;73.35
69411;BME280;56604;48.652;9.194;2023-03-14T12:34:32;94564.44;;;10.99;70.62
69411;BME280;56604;48.652;9.194;2023-03-14T12:37:36;94587.91;;;10.96;68.68
69411;BME280;56604;48.652;9.194;2023-03-14T12:40:21;94609.22;;;10.80;69.18
69411;BME280;56604;48.652;9.194;2023-03-14T12:42:57;94609.00;;;10.77;68.01
69411;BME280;56604;48.652;9.194;2023-03-14T12:45:32;94631.16;;;10.57;66.86
69411;BME280;56604;48.652;9.194;2023-03-14T12:48:16;94641.44;;;10.86;66.41
69411;BME280;56604;48.652;9.194;2023-03-14T12:50:55;94636.47;;;10.98;62.52
69411;BME280;56604;48.652;9.194;2023-03-14T12:56:21;94663.63;;;10.80;55.80
69411;BME280;56604;48.652;9.194;2023-03-14T12:58:58;94652.19;;;10.57;53.14
69411;BME280;56604;48.652;9.194;2023-03-14T13:01:27;94671.41;;;10.71;53.21
69411;BME280;56604;48.652;9.194;2023-03-14T13:03:56;94702.88;;;10.76;53.16
69411;BME280;56604;48.652;9.194;2023-03-14T13:06:57;94699.59;;;10.85;53.50
69411;BME280;56604;48.652;9.194;2023-03-14T13:12:02;94724.13;;;10.61;54.37
69411;BME280;56604;48.652;9.194;2023-03-14T13:14:30;94725.00;;;10.56;54.80
69411;BME280;56604;48.652;9.194;2023-03-14T13:16:59;94743.84;;;10.58;54.46
69411;BME280;56604;48.652;9.194;2023-03-14T13:19:29;94734.38;;;10.01;51.43
69411;BME280;56604;48.652;9.194;2023-03-14T13:22:02;94750.44;;;10.18;50.54
69411;BME280;56604;48.652;9.194;2023-03-14T13:24:28;94784.31;;;10.20;51.35
69411;BME280;56604;48.652;9.194;2023-03-14T13:26:55;94788.47;;;10.02;51.30
69411;BME280;56604;48.652;9.194;2023-03-14T13:29:31;94799.44;;;10.04;52.21
69411;BME280;56604;48.652;9.194;2023-03-14T13:32:00;94804.56;;;9.71;52.89
69411;BME280;56604;48.652;9.194;2023-03-14T13:34:30;94826.84;;;9.44;54.25
69411;BME280;56604;48.652;9.194;2023-03-14T13:36:56;94826.34;;;9.42;53.60
69411;BME280;56604;48.652;9.194;2023-03-14T13:39:23;94843.41;;;9.40;53.63
69411;BME280;56604;48.652;9.194;2023-03-14T13:41:54;94829.91;;;9.22;52.67
69411;BME280;56604;48.652;9.194;2023-03-14T13:46:50;94860.81;;;9.31;52.52
69411;BME280;56604;48.652;9.194;2023-03-14T13:49:22;94876.81;;;9.29;53.94
69411;BME280;56604;48.652;9.194;2023-03-14T13:51:49;94883.47;;;9.16;53.63